This is the latest recevied weather packets stored in our database for station/object W4ZHA. If no packets are shown the sender has not sent any weather packets the latest 1 day(s).
| Time | Temp. | Humidity | Pressure | Rain* | Wind** | Luminosity | Snow |
|---|---|---|---|---|---|---|---|
| 1778110103 | 18.89° C | 99% | 1012.7 hPa | 7.11 mm | - | 6 W/m² | - |
| 1778106159 | 18.89° C | 99% | 1011.6 hPa | 26.92 mm | - | 8 W/m² | - |
| 1778105857 | 18.89° C | 99% | 1012.3 hPa | 18.03 mm | - | 17 W/m² | - |
| 1778105555 | 18.89° C | 99% | 1013 hPa | 14.48 mm | - | 1 W/m² | - |
| 1778104036 | 18.89° C | 98% | 1011.6 hPa | 0 mm | - | 17 W/m² | - |
| 1778102521 | 18.89° C | 95% | 1011.6 hPa | 3.56 mm | - | 10 W/m² | - |
| 1778101913 | 18.89° C | 94% | 1012 hPa | 1.78 mm | - | 29 W/m² | - |
| 1778101610 | 18.89° C | 94% | 1012.3 hPa | 1.78 mm | - | 17 W/m² | - |
| 1778100397 | 19.44° C | 91% | 1012 hPa | 1.78 mm | - | 36 W/m² | - |
| 1778099488 | 19.44° C | 89% | 1012.3 hPa | 3.56 mm | - | 25 W/m² | - |
| 1778098882 | 19.44° C | 87% | 1012.3 hPa | 10.92 mm | - | 25 W/m² | - |
| 1778096760 | 21.11° C | 87% | 1012.3 hPa | 0 mm | - | 71 W/m² | - |
| 1778095851 | 20.56° C | 95% | 1013 hPa | 1.78 mm | - | 137 W/m² | - |
| 1778094636 | 20° C | 91% | 1012.7 hPa | 1.78 mm | - | 30 W/m² | - |
| 1778092819 | 20° C | 79% | 1013 hPa | 3.56 mm | - | 22 W/m² | - |
| 1778091909 | 21.11° C | 77% | 1013.4 hPa | 8.89 mm | - | 13 W/m² | - |
| 1778090090 | 21.67° C | 71% | 1013.8 hPa | 0 mm | - | 45 W/m² | - |
| 1778089181 | 22.22° C | 70% | 1013.4 hPa | 0 mm | - | 98 W/m² | - |
| 1778088575 | 21.67° C | 70% | 1013.4 hPa | 0 mm | - | 118 W/m² | - |
| 1778087060 | 21.67° C | 71% | 1013 hPa | 0 mm | - | 67 W/m² | - |
| 1778084937 | 20.56° C | 77% | 1012.7 hPa | 0 mm | - | 168 W/m² | - |
| 1778083123 | 20.56° C | 99% | 1013 hPa | 0 mm | - | 354 W/m² | - |
| 1778080184 | 19.44° C | 99% | 1013.8 hPa | 0 mm | - | 163 W/m² | - |
| 1778079577 | 19.44° C | 99% | 1013.8 hPa | 0 mm | - | 135 W/m² | - |
| 1778079273 | 18.89° C | 99% | 1012.3 hPa | 1.78 mm | - | 86 W/m² | - |
* Rain latest hour (hover to see other rain measurements)
** Current wind speed in m/s (hover to see current wind gust speed)